Starksboro, Vermont
Current Conditions -  °F | °C
As of 3:54 PM on Thursday 18 Dec 2014 (Local Time) from KBTV Reporting Station
Overcast Overcast  
Wind Chill: 26°   Ceiling: 2100
Heat Index: 33°   Visibility: 10mi
Dew Point: 25°   Wind: 8mph
Humidity: 72%   Direction: 320°NW
Pressure: 29.88"   Gusts: NA
Location:  44.23°N, 73.06°W
Report Text: KBTV 182054Z 32007KT 10SM OVC021 01/M04 A2988 RMK AO2 SLP121 T00061039 53012
Loading
Personal Weather Stations






























Interactive Weather Map New forecast layout! Learn more

10-Day Weather Forecast

Advertisements
Track Severe Weather on mobile